モントリオール/トルドー の空港の天気 - METARとTAF

モントリオール・ピエール・エリオット・トルドー国際空港 ( CYUL / YUL ) - カナダ ケベック州モントリオール
飛行場実況気象(Metar)
観測時間10/16 02:00 EDT (10/16 06:00 UTC)
風向・風速西南西 13m/s 瞬間風速23m/s
視程10km以上
天気現象
全天の8割程度の雲 雲底高度 1280m
気温6℃
湿度57%
気圧1009.3hPa
METARCYUL 160600Z CCA 25026G44KT 15SM BKN042 06/M02 A2980 RMK SC7 SLP093
過去の天気等 Google飛行場航空写真 Wunderground天気予報

過去48時間のMETAR

飛行場予報(TAF)
発表時間: 10/16 01:38 EDT (10/16 05:38 UTC)
予報対象時間: 16日2時 EDT ~ 17日2時 EDT
風向・風速西 13m/s 瞬間風速 18m/s
視程10km以上
全天の4割程度の雲 雲底高度 910m
全天の8割程度の雲 雲底高度 3660m
16日2時 EDT ~ 16日7時 EDT に一時的に
全天の8割程度の雲 雲底高度 910m
16日2時 EDT ~ 16日3時 EDT に徐々に
風向・風速西 10m/s 瞬間風速 15m/s
16日7時 EDT から
風向・風速西 10m/s 瞬間風速 15m/s
視程10km以上
全天の4割程度の雲 雲底高度 760m
16日7時 EDT ~ 16日12時 EDT に一時的に
全天の8割程度の雲 雲底高度 610m
16日12時 EDT から
風向・風速西 8m/s 瞬間風速 13m/s
視程10km以上
全天の8割程度の雲 雲底高度 910m
16日18時 EDT から
風向・風速西南西 8m/s 瞬間風速 13m/s
視程10km以上
全天の8割程度の雲 雲底高度 1520m
16日21時 EDT ~ 16日23時 EDT に徐々に
風向・風速南西 6m/s 瞬間風速 11m/s
TAF CYUL 160538Z 1606/1706 26025G35KT P6SM SCT030 BKN120
TEMPO 1606/1611 BKN030
BECMG 1606/1607 26020G30KT
FM161100 26020G30KT P6SM SCT025
TEMPO 1611/1616 BKN020
FM161600 26015G25KT P6SM BKN030
FM162200 24015G25KT P6SM BKN050
BECMG 1701/1703 23012G22KT RMK NXT FCST BY 160900Z